sensor_id;sensor_type;location;lat;lon;timestamp;temperature;humidity
23156;DHT22;11746;50.876;4.246;2023-07-13T00:00:26;16.90;99.90
23156;DHT22;11746;50.876;4.246;2023-07-13T00:02:52;17.00;99.90
23156;DHT22;11746;50.876;4.246;2023-07-13T00:05:22;17.10;99.90
23156;DHT22;11746;50.876;4.246;2023-07-13T00:07:51;16.90;99.90
23156;DHT22;11746;50.876;4.246;2023-07-13T00:10:17;16.80;99.90
23156;DHT22;11746;50.876;4.246;2023-07-13T00:12:44;16.70;99.90
23156;DHT22;11746;50.876;4.246;2023-07-13T00:15:25;16.80;99.90
23156;DHT22;11746;50.876;4.246;2023-07-13T00:17:53;16.70;99.90
23156;DHT22;11746;50.876;4.246;2023-07-13T00:20:24;16.60;99.90
23156;DHT22;11746;50.876;4.246;2023-07-13T00:22:53;16.70;99.90
23156;DHT22;11746;50.876;4.246;2023-07-13T00:25:23;16.70;99.90
23156;DHT22;11746;50.876;4.246;2023-07-13T00:27:53;16.70;99.90
23156;DHT22;11746;50.876;4.246;2023-07-13T00:30:20;16.60;99.90
23156;DHT22;11746;50.876;4.246;2023-07-13T00:32:45;16.70;99.90
23156;DHT22;11746;50.876;4.246;2023-07-13T00:35:13;16.80;99.90
23156;DHT22;11746;50.876;4.246;2023-07-13T00:37:39;16.70;99.90
23156;DHT22;11746;50.876;4.246;2023-07-13T00:40:06;16.80;99.90
23156;DHT22;11746;50.876;4.246;2023-07-13T00:42:32;16.70;99.90
23156;DHT22;11746;50.876;4.246;2023-07-13T00:47:47;16.70;99.90
23156;DHT22;11746;50.876;4.246;2023-07-13T00:50:15;16.70;99.90
23156;DHT22;11746;50.876;4.246;2023-07-13T00:52:49;16.80;99.90
23156;DHT22;11746;50.876;4.246;2023-07-13T00:55:17;16.90;99.90
23156;DHT22;11746;50.876;4.246;2023-07-13T00:57:44;16.90;99.90
23156;DHT22;11746;50.876;4.246;2023-07-13T01:00:13;16.70;99.90
23156;DHT22;11746;50.876;4.246;2023-07-13T01:02:42;16.60;99.90
23156;DHT22;11746;50.876;4.246;2023-07-13T01:05:14;16.60;99.90
23156;DHT22;11746;50.876;4.246;2023-07-13T01:07:40;16.50;99.90
23156;DHT22;11746;50.876;4.246;2023-07-13T01:10:08;16.40;99.90
23156;DHT22;11746;50.876;4.246;2023-07-13T01:12:34;16.50;99.90
23156;DHT22;11746;50.876;4.246;2023-07-13T01:15:01;16.40;99.90
23156;DHT22;11746;50.876;4.246;2023-07-13T01:17:31;16.30;99.90
23156;DHT22;11746;50.876;4.246;2023-07-13T01:19:58;16.30;99.90
23156;DHT22;11746;50.876;4.246;2023-07-13T01:22:26;16.30;99.90
23156;DHT22;11746;50.876;4.246;2023-07-13T01:24:53;16.40;99.90
23156;DHT22;11746;50.876;4.246;2023-07-13T01:27:24;16.30;99.90
23156;DHT22;11746;50.876;4.246;2023-07-13T01:29:51;16.40;99.90
23156;DHT22;11746;50.876;4.246;2023-07-13T01:32:22;16.40;99.90
23156;DHT22;11746;50.876;4.246;2023-07-13T01:34:53;16.50;99.90
23156;DHT22;11746;50.876;4.246;2023-07-13T01:37:23;16.30;99.90
23156;DHT22;11746;50.876;4.246;2023-07-13T01:39:49;16.30;99.90
23156;DHT22;11746;50.876;4.246;2023-07-13T01:42:15;16.30;99.90
23156;DHT22;11746;50.876;4.246;2023-07-13T01:44:41;16.30;99.90
23156;DHT22;11746;50.876;4.246;2023-07-13T01:47:07;16.20;99.90
23156;DHT22;11746;50.876;4.246;2023-07-13T01:49:33;16.20;99.90
23156;DHT22;11746;50.876;4.246;2023-07-13T01:51:59;16.00;99.90
23156;DHT22;11746;50.876;4.246;2023-07-13T01:54:25;15.80;99.90
23156;DHT22;11746;50.876;4.246;2023-07-13T01:56:51;16.00;99.90
23156;DHT22;11746;50.876;4.246;2023-07-13T01:59:17;16.00;99.90
23156;DHT22;11746;50.876;4.246;2023-07-13T02:01:43;16.00;99.90
23156;DHT22;11746;50.876;4.246;2023-07-13T02:04:09;16.00;99.90
23156;DHT22;11746;50.876;4.246;2023-07-13T02:06:36;16.10;99.90
23156;DHT22;11746;50.876;4.246;2023-07-13T02:09:02;15.90;99.90
23156;DHT22;11746;50.876;4.246;2023-07-13T02:11:28;16.00;99.90
23156;DHT22;11746;50.876;4.246;2023-07-13T02:14:02;16.00;99.90
23156;DHT22;11746;50.876;4.246;2023-07-13T02:16:29;15.80;99.90
23156;DHT22;11746;50.876;4.246;2023-07-13T02:18:55;15.90;99.90
23156;DHT22;11746;50.876;4.246;2023-07-13T02:21:22;16.00;99.90
23156;DHT22;11746;50.876;4.246;2023-07-13T02:23:49;15.90;99.90
23156;DHT22;11746;50.876;4.246;2023-07-13T02:26:15;15.70;99.90
23156;DHT22;11746;50.876;4.246;2023-07-13T02:28:41;15.60;99.90
23156;DHT22;11746;50.876;4.246;2023-07-13T02:31:11;15.60;99.90
23156;DHT22;11746;50.876;4.246;2023-07-13T02:33:38;15.60;99.90
23156;DHT22;11746;50.876;4.246;2023-07-13T02:36:04;15.50;99.90
23156;DHT22;11746;50.876;4.246;2023-07-13T02:38:34;15.40;99.90
23156;DHT22;11746;50.876;4.246;2023-07-13T02:41:04;15.50;99.90
23156;DHT22;11746;50.876;4.246;2023-07-13T02:43:31;15.50;99.90
23156;DHT22;11746;50.876;4.246;2023-07-13T02:45:58;15.60;99.90
23156;DHT22;11746;50.876;4.246;2023-07-13T02:48:29;15.70;99.90
23156;DHT22;11746;50.876;4.246;2023-07-13T02:50:55;15.70;99.90
23156;DHT22;11746;50.876;4.246;2023-07-13T02:53:21;15.60;99.90
23156;DHT22;11746;50.876;4.246;2023-07-13T02:55:47;15.60;99.90
23156;DHT22;11746;50.876;4.246;2023-07-13T02:58:13;15.70;99.90
23156;DHT22;11746;50.876;4.246;2023-07-13T03:00:43;15.70;99.90
23156;DHT22;11746;50.876;4.246;2023-07-13T03:03:12;15.70;99.90
23156;DHT22;11746;50.876;4.246;2023-07-13T03:05:42;15.60;99.90
23156;DHT22;11746;50.876;4.246;2023-07-13T03:08:09;15.70;99.90
23156;DHT22;11746;50.876;4.246;2023-07-13T03:10:35;15.70;99.90
23156;DHT22;11746;50.876;4.246;2023-07-13T03:13:01;15.80;99.90
23156;DHT22;11746;50.876;4.246;2023-07-13T03:15:27;15.80;99.90
23156;DHT22;11746;50.876;4.246;2023-07-13T03:17:53;15.50;99.90
23156;DHT22;11746;50.876;4.246;2023-07-13T03:20:19;15.50;99.90
23156;DHT22;11746;50.876;4.246;2023-07-13T03:22:46;15.50;99.90
23156;DHT22;11746;50.876;4.246;2023-07-13T03:25:12;15.50;99.90
23156;DHT22;11746;50.876;4.246;2023-07-13T03:27:38;15.50;99.90
23156;DHT22;11746;50.876;4.246;2023-07-13T03:30:05;15.40;99.90
23156;DHT22;11746;50.876;4.246;2023-07-13T03:32:32;15.50;99.90
23156;DHT22;11746;50.876;4.246;2023-07-13T03:34:57;15.50;99.90
23156;DHT22;11746;50.876;4.246;2023-07-13T03:37:24;15.40;99.90
23156;DHT22;11746;50.876;4.246;2023-07-13T03:39:50;15.50;99.90
23156;DHT22;11746;50.876;4.246;2023-07-13T03:42:16;15.50;99.90
23156;DHT22;11746;50.876;4.246;2023-07-13T03:44:42;15.50;99.90
23156;DHT22;11746;50.876;4.246;2023-07-13T03:47:11;15.50;99.90
23156;DHT22;11746;50.876;4.246;2023-07-13T03:49:37;15.70;99.90
23156;DHT22;11746;50.876;4.246;2023-07-13T03:52:04;15.60;99.90
23156;DHT22;11746;50.876;4.246;2023-07-13T03:54:30;15.50;99.90
23156;DHT22;11746;50.876;4.246;2023-07-13T03:56:56;15.50;99.90
23156;DHT22;11746;50.876;4.246;2023-07-13T03:59:22;15.60;99.90
23156;DHT22;11746;50.876;4.246;2023-07-13T04:01:48;15.50;99.90
23156;DHT22;11746;50.876;4.246;2023-07-13T04:04:14;15.60;99.90
23156;DHT22;11746;50.876;4.246;2023-07-13T04:06:41;15.60;99.90
23156;DHT22;11746;50.876;4.246;2023-07-13T04:09:07;15.80;99.90
23156;DHT22;11746;50.876;4.246;2023-07-13T04:11:34;15.70;99.90
23156;DHT22;11746;50.876;4.246;2023-07-13T04:14:02;15.50;99.90
23156;DHT22;11746;50.876;4.246;2023-07-13T04:16:28;15.60;99.90
23156;DHT22;11746;50.876;4.246;2023-07-13T04:18:55;15.60;99.90
23156;DHT22;11746;50.876;4.246;2023-07-13T04:21:28;15.70;99.90
23156;DHT22;11746;50.876;4.246;2023-07-13T04:23:54;15.80;99.90
23156;DHT22;11746;50.876;4.246;2023-07-13T04:26:20;15.90;99.90
23156;DHT22;11746;50.876;4.246;2023-07-13T04:28:47;15.90;99.90
23156;DHT22;11746;50.876;4.246;2023-07-13T04:31:14;15.80;99.90
23156;DHT22;11746;50.876;4.246;2023-07-13T04:33:40;15.50;99.90
23156;DHT22;11746;50.876;4.246;2023-07-13T04:36:05;15.70;99.90
23156;DHT22;11746;50.876;4.246;2023-07-13T04:38:32;15.70;99.90
23156;DHT22;11746;50.876;4.246;2023-07-13T04:41:01;15.90;99.90
23156;DHT22;11746;50.876;4.246;2023-07-13T04:43:28;15.90;99.90
23156;DHT22;11746;50.876;4.246;2023-07-13T04:45:55;15.80;99.90
23156;DHT22;11746;50.876;4.246;2023-07-13T04:48:22;15.80;99.90
23156;DHT22;11746;50.876;4.246;2023-07-13T04:50:55;15.80;99.90
23156;DHT22;11746;50.876;4.246;2023-07-13T04:53:21;15.90;99.90
23156;DHT22;11746;50.876;4.246;2023-07-13T04:55:47;15.90;99.90
23156;DHT22;11746;50.876;4.246;2023-07-13T04:58:13;15.90;99.90
23156;DHT22;11746;50.876;4.246;2023-07-13T05:00:39;16.00;99.90
23156;DHT22;11746;50.876;4.246;2023-07-13T05:03:05;16.10;99.90
23156;DHT22;11746;50.876;4.246;2023-07-13T05:05:31;15.90;99.90
23156;DHT22;11746;50.876;4.246;2023-07-13T05:07:58;16.00;99.90
23156;DHT22;11746;50.876;4.246;2023-07-13T05:10:24;15.90;99.90
23156;DHT22;11746;50.876;4.246;2023-07-13T05:12:50;15.90;99.90
23156;DHT22;11746;50.876;4.246;2023-07-13T05:15:17;15.90;99.90
23156;DHT22;11746;50.876;4.246;2023-07-13T05:17:47;15.90;99.90
23156;DHT22;11746;50.876;4.246;2023-07-13T05:20:14;16.10;99.90
23156;DHT22;11746;50.876;4.246;2023-07-13T05:22:40;15.90;99.90
23156;DHT22;11746;50.876;4.246;2023-07-13T05:25:07;15.80;99.90
23156;DHT22;11746;50.876;4.246;2023-07-13T05:27:34;16.00;99.90
23156;DHT22;11746;50.876;4.246;2023-07-13T05:30:00;16.10;99.90
23156;DHT22;11746;50.876;4.246;2023-07-13T05:32:26;16.00;99.90
23156;DHT22;11746;50.876;4.246;2023-07-13T05:34:52;15.90;99.90
23156;DHT22;11746;50.876;4.246;2023-07-13T05:37:18;16.00;99.90
23156;DHT22;11746;50.876;4.246;2023-07-13T05:39:44;16.00;99.90
23156;DHT22;11746;50.876;4.246;2023-07-13T05:42:10;16.20;99.90
23156;DHT22;11746;50.876;4.246;2023-07-13T05:44:36;16.20;99.90
23156;DHT22;11746;50.876;4.246;2023-07-13T05:47:01;16.20;99.90
23156;DHT22;11746;50.876;4.246;2023-07-13T05:49:29;16.10;99.90
23156;DHT22;11746;50.876;4.246;2023-07-13T05:51:56;15.90;99.90
23156;DHT22;11746;50.876;4.246;2023-07-13T05:54:22;15.90;99.90
23156;DHT22;11746;50.876;4.246;2023-07-13T05:56:48;15.80;99.90
23156;DHT22;11746;50.876;4.246;2023-07-13T05:59:14;15.80;99.90
23156;DHT22;11746;50.876;4.246;2023-07-13T06:01:41;15.90;99.90
23156;DHT22;11746;50.876;4.246;2023-07-13T06:04:07;16.00;99.90
23156;DHT22;11746;50.876;4.246;2023-07-13T06:06:33;16.10;99.90
23156;DHT22;11746;50.876;4.246;2023-07-13T06:08:58;16.20;99.90
23156;DHT22;11746;50.876;4.246;2023-07-13T06:11:26;16.20;99.90
23156;DHT22;11746;50.876;4.246;2023-07-13T06:13:53;16.20;99.90
23156;DHT22;11746;50.876;4.246;2023-07-13T06:16:20;16.20;99.90
23156;DHT22;11746;50.876;4.246;2023-07-13T06:18:46;16.30;99.90
23156;DHT22;11746;50.876;4.246;2023-07-13T06:21:18;16.40;99.90
23156;DHT22;11746;50.876;4.246;2023-07-13T06:23:46;16.40;99.90
23156;DHT22;11746;50.876;4.246;2023-07-13T06:26:16;16.60;99.90
23156;DHT22;11746;50.876;4.246;2023-07-13T06:28:43;16.80;99.90
23156;DHT22;11746;50.876;4.246;2023-07-13T06:31:11;16.80;99.90
23156;DHT22;11746;50.876;4.246;2023-07-13T06:33:37;16.90;99.90
23156;DHT22;11746;50.876;4.246;2023-07-13T06:36:05;17.10;99.90
23156;DHT22;11746;50.876;4.246;2023-07-13T06:38:31;17.10;99.90
23156;DHT22;11746;50.876;4.246;2023-07-13T06:40:57;17.10;99.90
23156;DHT22;11746;50.876;4.246;2023-07-13T06:43:23;17.00;99.90
23156;DHT22;11746;50.876;4.246;2023-07-13T06:45:51;17.10;99.90
23156;DHT22;11746;50.876;4.246;2023-07-13T06:48:18;17.00;99.90
23156;DHT22;11746;50.876;4.246;2023-07-13T06:50:45;17.10;99.90
23156;DHT22;11746;50.876;4.246;2023-07-13T06:53:12;17.10;99.90
23156;DHT22;11746;50.876;4.246;2023-07-13T06:55:39;17.10;99.90
23156;DHT22;11746;50.876;4.246;2023-07-13T06:58:04;17.00;99.90
23156;DHT22;11746;50.876;4.246;2023-07-13T07:00:31;17.20;99.90
23156;DHT22;11746;50.876;4.246;2023-07-13T07:02:57;17.20;99.90
23156;DHT22;11746;50.876;4.246;2023-07-13T07:05:23;17.10;99.90
23156;DHT22;11746;50.876;4.246;2023-07-13T07:07:53;17.10;99.90
23156;DHT22;11746;50.876;4.246;2023-07-13T07:10:20;17.30;99.90
23156;DHT22;11746;50.876;4.246;2023-07-13T07:12:46;17.50;99.90
23156;DHT22;11746;50.876;4.246;2023-07-13T07:15:12;17.40;99.90
23156;DHT22;11746;50.876;4.246;2023-07-13T07:17:38;17.40;99.90
23156;DHT22;11746;50.876;4.246;2023-07-13T07:20:05;17.30;99.90
23156;DHT22;11746;50.876;4.246;2023-07-13T07:22:31;17.50;99.90
23156;DHT22;11746;50.876;4.246;2023-07-13T07:24:57;17.60;99.90
23156;DHT22;11746;50.876;4.246;2023-07-13T07:27:24;17.70;99.90
23156;DHT22;11746;50.876;4.246;2023-07-13T07:29:50;17.80;99.90
23156;DHT22;11746;50.876;4.246;2023-07-13T07:32:16;18.00;99.90
23156;DHT22;11746;50.876;4.246;2023-07-13T07:34:42;18.10;99.90
23156;DHT22;11746;50.876;4.246;2023-07-13T07:37:11;18.20;99.90
23156;DHT22;11746;50.876;4.246;2023-07-13T07:39:37;18.20;99.90
23156;DHT22;11746;50.876;4.246;2023-07-13T07:42:03;18.20;99.90
23156;DHT22;11746;50.876;4.246;2023-07-13T07:44:31;18.40;99.90
23156;DHT22;11746;50.876;4.246;2023-07-13T07:46:57;18.50;99.90
23156;DHT22;11746;50.876;4.246;2023-07-13T07:49:23;18.40;99.90
23156;DHT22;11746;50.876;4.246;2023-07-13T07:51:49;18.70;99.90
23156;DHT22;11746;50.876;4.246;2023-07-13T07:54:15;18.70;99.90
23156;DHT22;11746;50.876;4.246;2023-07-13T07:56:41;18.50;99.90
23156;DHT22;11746;50.876;4.246;2023-07-13T07:59:07;18.50;99.90
23156;DHT22;11746;50.876;4.246;2023-07-13T08:01:33;18.30;99.90
23156;DHT22;11746;50.876;4.246;2023-07-13T08:03:59;18.30;99.90
23156;DHT22;11746;50.876;4.246;2023-07-13T08:06:24;18.40;99.90
23156;DHT22;11746;50.876;4.246;2023-07-13T08:08:50;18.50;99.90
23156;DHT22;11746;50.876;4.246;2023-07-13T08:11:17;18.80;99.90
23156;DHT22;11746;50.876;4.246;2023-07-13T08:13:43;19.00;99.90
23156;DHT22;11746;50.876;4.246;2023-07-13T08:16:09;18.90;99.90
23156;DHT22;11746;50.876;4.246;2023-07-13T08:18:35;18.80;99.90
23156;DHT22;11746;50.876;4.246;2023-07-13T08:21:05;18.90;99.90
23156;DHT22;11746;50.876;4.246;2023-07-13T08:23:31;18.80;99.90
23156;DHT22;11746;50.876;4.246;2023-07-13T08:25:58;18.80;99.90
23156;DHT22;11746;50.876;4.246;2023-07-13T08:28:25;18.90;99.90
23156;DHT22;11746;50.876;4.246;2023-07-13T08:30:51;18.80;99.90
23156;DHT22;11746;50.876;4.246;2023-07-13T08:33:18;18.80;99.90
23156;DHT22;11746;50.876;4.246;2023-07-13T08:35:48;18.90;99.90
23156;DHT22;11746;50.876;4.246;2023-07-13T08:38:14;19.20;99.90
23156;DHT22;11746;50.876;4.246;2023-07-13T08:40:41;19.50;99.90
23156;DHT22;11746;50.876;4.246;2023-07-13T08:43:15;19.50;99.90
23156;DHT22;11746;50.876;4.246;2023-07-13T08:48:38;19.50;99.90
23156;DHT22;11746;50.876;4.246;2023-07-13T08:51:13;19.30;99.90
23156;DHT22;11746;50.876;4.246;2023-07-13T08:53:47;19.60;99.90
23156;DHT22;11746;50.876;4.246;2023-07-13T08:56:23;20.00;99.90
23156;DHT22;11746;50.876;4.246;2023-07-13T08:58:55;20.00;99.90
23156;DHT22;11746;50.876;4.246;2023-07-13T09:01:36;20.10;99.90
23156;DHT22;11746;50.876;4.246;2023-07-13T09:04:14;20.10;99.90
23156;DHT22;11746;50.876;4.246;2023-07-13T09:07:05;19.90;99.90
23156;DHT22;11746;50.876;4.246;2023-07-13T09:09:55;19.90;99.90
23156;DHT22;11746;50.876;4.246;2023-07-13T09:15:34;20.20;99.90
23156;DHT22;11746;50.876;4.246;2023-07-13T09:20:39;20.40;99.90
23156;DHT22;11746;50.876;4.246;2023-07-13T09:23:12;20.40;99.90
23156;DHT22;11746;50.876;4.246;2023-07-13T09:25:40;20.20;99.90
23156;DHT22;11746;50.876;4.246;2023-07-13T09:28:24;20.20;99.90
23156;DHT22;11746;50.876;4.246;2023-07-13T09:33:19;20.30;99.90
23156;DHT22;11746;50.876;4.246;2023-07-13T09:35:48;20.40;99.90
23156;DHT22;11746;50.876;4.246;2023-07-13T09:38:19;20.50;99.90
23156;DHT22;11746;50.876;4.246;2023-07-13T09:44:09;20.40;99.90
23156;DHT22;11746;50.876;4.246;2023-07-13T09:46:35;20.50;99.90
23156;DHT22;11746;50.876;4.246;2023-07-13T09:49:01;20.80;99.90
23156;DHT22;11746;50.876;4.246;2023-07-13T09:51:27;21.00;99.90
23156;DHT22;11746;50.876;4.246;2023-07-13T09:53:53;21.10;99.90
23156;DHT22;11746;50.876;4.246;2023-07-13T09:56:26;21.00;99.90
23156;DHT22;11746;50.876;4.246;2023-07-13T09:58:53;21.10;99.90
23156;DHT22;11746;50.876;4.246;2023-07-13T10:01:37;21.10;99.90
23156;DHT22;11746;50.876;4.246;2023-07-13T10:04:11;21.00;99.90
23156;DHT22;11746;50.876;4.246;2023-07-13T10:06:39;21.00;99.90
23156;DHT22;11746;50.876;4.246;2023-07-13T10:09:09;21.00;99.90
23156;DHT22;11746;50.876;4.246;2023-07-13T10:11:38;20.90;99.90
23156;DHT22;11746;50.876;4.246;2023-07-13T10:14:13;21.20;99.90
23156;DHT22;11746;50.876;4.246;2023-07-13T10:16:42;21.50;99.90
23156;DHT22;11746;50.876;4.246;2023-07-13T10:19:17;21.60;99.90
23156;DHT22;11746;50.876;4.246;2023-07-13T10:21:53;21.50;99.90
23156;DHT22;11746;50.876;4.246;2023-07-13T10:24:33;21.40;99.90
23156;DHT22;11746;50.876;4.246;2023-07-13T10:27:15;21.60;99.90
23156;DHT22;11746;50.876;4.246;2023-07-13T10:30:14;21.10;99.90
23156;DHT22;11746;50.876;4.246;2023-07-13T10:32:40;20.30;99.90
23156;DHT22;11746;50.876;4.246;2023-07-13T10:35:13;20.20;99.90
23156;DHT22;11746;50.876;4.246;2023-07-13T10:37:51;20.20;99.90
23156;DHT22;11746;50.876;4.246;2023-07-13T10:40:29;20.20;99.90
23156;DHT22;11746;50.876;4.246;2023-07-13T10:42:59;20.00;99.90
23156;DHT22;11746;50.876;4.246;2023-07-13T10:45:33;20.00;99.90
23156;DHT22;11746;50.876;4.246;2023-07-13T10:48:00;19.90;99.90
23156;DHT22;11746;50.876;4.246;2023-07-13T10:50:28;20.20;99.90
23156;DHT22;11746;50.876;4.246;2023-07-13T10:53:02;20.60;99.90
23156;DHT22;11746;50.876;4.246;2023-07-13T11:01:13;21.90;99.90
23156;DHT22;11746;50.876;4.246;2023-07-13T11:03:59;22.10;99.90
23156;DHT22;11746;50.876;4.246;2023-07-13T11:06:31;22.00;99.90
23156;DHT22;11746;50.876;4.246;2023-07-13T11:12:06;22.40;99.90
23156;DHT22;11746;50.876;4.246;2023-07-13T11:14:44;22.20;99.90
23156;DHT22;11746;50.876;4.246;2023-07-13T11:22:46;22.30;99.90
23156;DHT22;11746;50.876;4.246;2023-07-13T11:25:26;22.30;99.90
23156;DHT22;11746;50.876;4.246;2023-07-13T11:28:18;22.00;99.90
23156;DHT22;11746;50.876;4.246;2023-07-13T11:36:23;21.30;99.90
23156;DHT22;11746;50.876;4.246;2023-07-13T11:39:00;20.60;99.90
23156;DHT22;11746;50.876;4.246;2023-07-13T11:41:34;20.10;99.90
23156;DHT22;11746;50.876;4.246;2023-07-13T11:44:15;19.60;99.90
23156;DHT22;11746;50.876;4.246;2023-07-13T11:46:49;19.60;99.90
23156;DHT22;11746;50.876;4.246;2023-07-13T11:49:21;19.60;99.90
23156;DHT22;11746;50.876;4.246;2023-07-13T11:51:47;19.60;99.90
23156;DHT22;11746;50.876;4.246;2023-07-13T11:56:52;19.50;99.90
23156;DHT22;11746;50.876;4.246;2023-07-13T11:59:19;19.70;99.90
23156;DHT22;11746;50.876;4.246;2023-07-13T12:01:50;19.70;99.90
23156;DHT22;11746;50.876;4.246;2023-07-13T12:04:29;19.90;99.90
23156;DHT22;11746;50.876;4.246;2023-07-13T12:07:15;20.00;99.90
23156;DHT22;11746;50.876;4.246;2023-07-13T12:09:42;20.20;99.90
23156;DHT22;11746;50.876;4.246;2023-07-13T12:12:14;19.70;99.90
23156;DHT22;11746;50.876;4.246;2023-07-13T12:14:42;19.10;99.90
23156;DHT22;11746;50.876;4.246;2023-07-13T12:17:20;18.20;99.90
23156;DHT22;11746;50.876;4.246;2023-07-13T12:19:48;17.40;99.90
23156;DHT22;11746;50.876;4.246;2023-07-13T12:22:16;17.10;99.90
23156;DHT22;11746;50.876;4.246;2023-07-13T12:24:43;17.10;99.90
23156;DHT22;11746;50.876;4.246;2023-07-13T12:27:24;17.20;99.90
23156;DHT22;11746;50.876;4.246;2023-07-13T12:30:01;17.50;99.90
23156;DHT22;11746;50.876;4.246;2023-07-13T12:32:28;17.70;99.90
23156;DHT22;11746;50.876;4.246;2023-07-13T12:35:06;17.70;99.90
23156;DHT22;11746;50.876;4.246;2023-07-13T12:37:35;17.70;99.90
23156;DHT22;11746;50.876;4.246;2023-07-13T12:40:01;18.00;99.90
23156;DHT22;11746;50.876;4.246;2023-07-13T12:42:32;18.00;99.90
23156;DHT22;11746;50.876;4.246;2023-07-13T12:45:03;17.90;99.90
23156;DHT22;11746;50.876;4.246;2023-07-13T12:47:42;17.80;99.90
23156;DHT22;11746;50.876;4.246;2023-07-13T12:50:18;17.90;99.90
23156;DHT22;11746;50.876;4.246;2023-07-13T12:52:44;18.00;99.90
23156;DHT22;11746;50.876;4.246;2023-07-13T12:55:18;18.10;99.90
23156;DHT22;11746;50.876;4.246;2023-07-13T12:57:54;18.20;99.90
23156;DHT22;11746;50.876;4.246;2023-07-13T13:00:25;18.20;99.90
23156;DHT22;11746;50.876;4.246;2023-07-13T13:02:54;18.20;99.90
23156;DHT22;11746;50.876;4.246;2023-07-13T13:05:21;18.10;99.90
23156;DHT22;11746;50.876;4.246;2023-07-13T13:07:49;18.30;99.90
23156;DHT22;11746;50.876;4.246;2023-07-13T13:10:15;18.50;99.90
23156;DHT22;11746;50.876;4.246;2023-07-13T13:12:42;18.70;99.90
23156;DHT22;11746;50.876;4.246;2023-07-13T13:15:09;18.80;99.90
23156;DHT22;11746;50.876;4.246;2023-07-13T13:17:35;18.90;99.90
23156;DHT22;11746;50.876;4.246;2023-07-13T13:20:01;19.10;99.90
23156;DHT22;11746;50.876;4.246;2023-07-13T13:22:27;19.30;99.90
23156;DHT22;11746;50.876;4.246;2023-07-13T13:24:53;19.90;99.90
23156;DHT22;11746;50.876;4.246;2023-07-13T13:27:22;20.50;99.90
23156;DHT22;11746;50.876;4.246;2023-07-13T13:29:50;20.70;99.90
23156;DHT22;11746;50.876;4.246;2023-07-13T13:32:18;21.40;99.90
23156;DHT22;11746;50.876;4.246;2023-07-13T13:34:44;21.50;99.90
23156;DHT22;11746;50.876;4.246;2023-07-13T13:37:23;21.80;99.90
23156;DHT22;11746;50.876;4.246;2023-07-13T13:39:51;22.10;99.90
23156;DHT22;11746;50.876;4.246;2023-07-13T13:42:19;22.10;99.90
23156;DHT22;11746;50.876;4.246;2023-07-13T13:44:46;22.50;99.90
23156;DHT22;11746;50.876;4.246;2023-07-13T13:47:42;22.60;99.90
23156;DHT22;11746;50.876;4.246;2023-07-13T13:50:20;22.70;99.90
23156;DHT22;11746;50.876;4.246;2023-07-13T13:52:48;23.10;99.90
23156;DHT22;11746;50.876;4.246;2023-07-13T13:55:18;23.20;99.90
23156;DHT22;11746;50.876;4.246;2023-07-13T13:57:47;23.00;99.90
23156;DHT22;11746;50.876;4.246;2023-07-13T14:00:15;23.40;99.90
23156;DHT22;11746;50.876;4.246;2023-07-13T14:02:45;23.40;99.90
23156;DHT22;11746;50.876;4.246;2023-07-13T14:05:24;23.70;99.90
23156;DHT22;11746;50.876;4.246;2023-07-13T14:07:54;23.50;99.90
23156;DHT22;11746;50.876;4.246;2023-07-13T14:10:22;23.40;99.90
23156;DHT22;11746;50.876;4.246;2023-07-13T14:12:51;23.70;99.90
23156;DHT22;11746;50.876;4.246;2023-07-13T14:15:29;23.60;99.90
23156;DHT22;11746;50.876;4.246;2023-07-13T14:17:58;23.70;99.90
23156;DHT22;11746;50.876;4.246;2023-07-13T14:20:25;24.30;99.90
23156;DHT22;11746;50.876;4.246;2023-07-13T14:22:52;24.50;99.90
23156;DHT22;11746;50.876;4.246;2023-07-13T14:25:19;24.60;99.90
23156;DHT22;11746;50.876;4.246;2023-07-13T14:27:48;24.30;99.90
23156;DHT22;11746;50.876;4.246;2023-07-13T14:30:17;24.10;99.90
23156;DHT22;11746;50.876;4.246;2023-07-13T14:32:44;24.00;99.90
23156;DHT22;11746;50.876;4.246;2023-07-13T14:35:13;23.90;99.90
23156;DHT22;11746;50.876;4.246;2023-07-13T14:37:40;23.80;99.90
23156;DHT22;11746;50.876;4.246;2023-07-13T14:40:17;23.80;99.90
23156;DHT22;11746;50.876;4.246;2023-07-13T14:42:43;24.10;99.90
23156;DHT22;11746;50.876;4.246;2023-07-13T14:45:19;24.70;99.90
23156;DHT22;11746;50.876;4.246;2023-07-13T14:47:47;25.30;99.90
23156;DHT22;11746;50.876;4.246;2023-07-13T14:50:14;25.50;99.90
23156;DHT22;11746;50.876;4.246;2023-07-13T14:52:41;25.40;99.90
23156;DHT22;11746;50.876;4.246;2023-07-13T14:55:16;25.10;99.90
23156;DHT22;11746;50.876;4.246;2023-07-13T14:57:42;25.00;99.90
23156;DHT22;11746;50.876;4.246;2023-07-13T15:00:19;25.50;99.90
23156;DHT22;11746;50.876;4.246;2023-07-13T15:02:52;25.10;99.90
23156;DHT22;11746;50.876;4.246;2023-07-13T15:05:25;25.00;99.90
23156;DHT22;11746;50.876;4.246;2023-07-13T15:07:53;24.90;99.90
23156;DHT22;11746;50.876;4.246;2023-07-13T15:10:21;24.70;99.90
23156;DHT22;11746;50.876;4.246;2023-07-13T15:12:47;24.90;99.90
23156;DHT22;11746;50.876;4.246;2023-07-13T15:15:14;25.70;99.90
23156;DHT22;11746;50.876;4.246;2023-07-13T15:17:45;25.70;99.90
23156;DHT22;11746;50.876;4.246;2023-07-13T15:20:32;25.40;99.90
23156;DHT22;11746;50.876;4.246;2023-07-13T15:22:58;24.80;99.90
23156;DHT22;11746;50.876;4.246;2023-07-13T15:25:26;24.90;99.90
23156;DHT22;11746;50.876;4.246;2023-07-13T15:27:54;25.50;99.90
23156;DHT22;11746;50.876;4.246;2023-07-13T15:30:20;26.20;99.90
23156;DHT22;11746;50.876;4.246;2023-07-13T15:32:47;25.90;97.40
23156;DHT22;11746;50.876;4.246;2023-07-13T15:35:21;25.40;97.90
23156;DHT22;11746;50.876;4.246;2023-07-13T15:37:48;25.60;96.90
23156;DHT22;11746;50.876;4.246;2023-07-13T15:40:16;25.70;96.10
23156;DHT22;11746;50.876;4.246;2023-07-13T15:42:42;25.90;97.00
23156;DHT22;11746;50.876;4.246;2023-07-13T15:45:19;26.20;96.70
23156;DHT22;11746;50.876;4.246;2023-07-13T15:47:46;26.20;95.50
23156;DHT22;11746;50.876;4.246;2023-07-13T15:50:14;26.40;95.80
23156;DHT22;11746;50.876;4.246;2023-07-13T15:52:42;26.60;96.40
23156;DHT22;11746;50.876;4.246;2023-07-13T15:55:12;27.10;95.40
23156;DHT22;11746;50.876;4.246;2023-07-13T15:57:45;26.90;92.70
23156;DHT22;11746;50.876;4.246;2023-07-13T16:00:21;26.20;94.40
23156;DHT22;11746;50.876;4.246;2023-07-13T16:02:49;25.90;95.70
23156;DHT22;11746;50.876;4.246;2023-07-13T16:05:18;25.70;95.70
23156;DHT22;11746;50.876;4.246;2023-07-13T16:07:48;25.60;95.00
23156;DHT22;11746;50.876;4.246;2023-07-13T16:10:17;25.50;95.40
23156;DHT22;11746;50.876;4.246;2023-07-13T16:12:44;25.20;95.30
23156;DHT22;11746;50.876;4.246;2023-07-13T16:15:19;25.50;94.30
23156;DHT22;11746;50.876;4.246;2023-07-13T16:17:46;25.80;93.60
23156;DHT22;11746;50.876;4.246;2023-07-13T16:20:13;26.00;92.40